Time;durP1;ratioP1;P1;durP2;ratioP2;P2;SDS_P1;SDS_P2;PMS_P1;PMS_P2;Temp;Humidity;BMP_temperature;BMP_pressure;BME280_temperature;BME280_humidity;BME280_pressure;Samples;Min_cycle;Max_cycle;Signal;HPM_P1;HPM_P2
2021/03/26 00:00:33;;;;;;;111.22;57.25;;;;;;;8.36;55.73;100622.56;5103531;28;20048;-75
2021/03/26 00:03:00;;;;;;;118.78;59.53;;;;;;;8.40;55.87;100616.34;5099920;28;20073;-74
2021/03/26 00:05:27;;;;;;;111.88;59.05;;;;;;;8.45;55.73;100611.88;5104318;28;20430;-75
2021/03/26 00:07:53;;;;;;;114.25;58.95;;;;;;;8.57;55.52;100614.22;5097770;28;20345;-75
2021/03/26 00:10:22;;;;;;;106.13;54.67;;;;;;;8.63;55.46;100614.03;5098911;28;20070;-75
2021/03/26 00:12:49;;;;;;;105.35;53.10;;;;;;;8.65;55.30;100619.22;5092695;28;20043;-76
2021/03/26 00:15:16;;;;;;;106.72;55.05;;;;;;;8.70;55.34;100620.81;5093139;28;20077;-76
2021/03/26 00:17:42;;;;;;;110.55;53.80;;;;;;;8.80;55.10;100624.09;5104198;28;20052;-76
2021/03/26 00:20:09;;;;;;;95.63;50.90;;;;;;;8.85;55.03;100623.06;5100108;28;20330;-76
2021/03/26 00:22:35;;;;;;;105.68;54.13;;;;;;;8.86;54.90;100619.56;5101997;28;20047;-76
2021/03/26 00:25:02;;;;;;;100.43;53.55;;;;;;;8.85;55.03;100619.59;5099864;28;20058;-77
2021/03/26 00:27:29;;;;;;;105.85;54.30;;;;;;;8.84;55.07;100618.75;5101186;28;20127;-77
2021/03/26 00:29:55;;;;;;;98.03;51.47;;;;;;;8.85;55.06;100617.84;5095373;28;20494;-78
2021/03/26 00:32:21;;;;;;;95.88;50.22;;;;;;;8.80;55.01;100616.25;5095623;28;20063;-77
2021/03/26 00:34:50;;;;;;;99.45;52.75;;;;;;;8.70;55.44;100604.28;5098233;28;20074;-76
2021/03/26 00:37:16;;;;;;;90.78;49.50;;;;;;;8.71;55.21;100609.47;5095515;28;20052;-77
2021/03/26 00:39:43;;;;;;;88.63;49.00;;;;;;;8.75;55.35;100608.53;5095010;28;20077;-77
2021/03/26 00:42:09;;;;;;;97.50;50.30;;;;;;;8.76;55.30;100610.25;5097326;28;20115;-77
2021/03/26 00:44:36;;;;;;;93.00;49.30;;;;;;;8.71;55.13;100604.25;5107363;28;20521;-77
2021/03/26 00:47:03;;;;;;;92.97;50.08;;;;;;;8.70;55.14;100599.91;5103327;28;20075;-78
2021/03/26 00:49:29;;;;;;;96.95;51.08;;;;;;;8.73;55.08;100604.22;5095735;28;20051;-78
2021/03/26 00:51:55;;;;;;;92.15;51.03;;;;;;;8.69;55.14;100598.19;5105311;28;20495;-76
2021/03/26 00:54:22;;;;;;;96.50;51.67;;;;;;;8.65;55.45;100596.56;5103412;28;20037;-76
2021/03/26 00:56:48;;;;;;;100.82;53.08;;;;;;;8.62;55.61;100599.25;5100443;28;20134;-76
2021/03/26 00:59:14;;;;;;;97.28;50.70;;;;;;;8.66;55.39;100598.28;5101977;28;20051;-76
2021/03/26 01:01:41;;;;;;;97.90;51.25;;;;;;;8.66;55.48;100603.50;5097857;28;20498;-76
2021/03/26 01:04:07;;;;;;;106.97;54.65;;;;;;;8.64;55.32;100610.53;5102633;28;20087;-76
2021/03/26 01:06:33;;;;;;;102.88;54.03;;;;;;;8.62;55.48;100606.25;5100401;28;20068;-76
2021/03/26 01:09:00;;;;;;;108.10;57.75;;;;;;;8.57;55.66;100598.53;5107739;28;20486;-77
2021/03/26 01:11:29;;;;;;;111.95;57.45;;;;;;;8.52;55.85;100600.38;5111514;28;20134;-76
2021/03/26 01:13:56;;;;;;;103.70;56.53;;;;;;;8.53;55.84;100607.31;5104049;28;20044;-76
2021/03/26 01:16:23;;;;;;;113.32;55.95;;;;;;;8.57;55.80;100601.13;5108871;28;20058;-77
2021/03/26 01:18:51;;;;;;;105.80;55.30;;;;;;;8.52;55.86;100597.75;5103234;28;20063;-76
2021/03/26 01:21:22;;;;;;;114.53;55.95;;;;;;;8.49;56.12;100595.22;5098139;28;20135;-75
2021/03/26 01:23:48;;;;;;;71.80;38.78;;;;;;;8.47;56.19;100597.88;5098534;28;20131;-77
2021/03/26 01:26:14;;;;;;;90.90;50.25;;;;;;;8.40;56.30;100601.53;5098045;28;20043;-76
2021/03/26 01:28:40;;;;;;;112.05;55.67;;;;;;;8.42;56.27;100591.03;5096005;28;20075;-76
2021/03/26 01:31:07;;;;;;;107.53;54.28;;;;;;;8.43;56.25;100598.84;5105289;28;20078;-76
2021/03/26 01:33:33;;;;;;;111.65;55.20;;;;;;;8.49;55.99;100595.22;5106760;28;20495;-77
2021/03/26 01:36:00;;;;;;;113.65;54.40;;;;;;;8.57;55.93;100603.75;5102361;28;20052;-77
2021/03/26 01:38:27;;;;;;;102.15;53.90;;;;;;;8.61;56.08;100610.63;5099725;28;20048;-77
2021/03/26 01:40:57;;;;;;;97.05;50.70;;;;;;;8.63;56.15;100603.59;5100612;28;20054;-78
2021/03/26 01:43:26;;;;;;;104.30;52.70;;;;;;;8.67;56.12;100607.84;5107028;28;20044;-78
2021/03/26 01:45:53;;;;;;;103.13;53.85;;;;;;;8.63;56.15;100608.81;5104406;28;20549;-78
2021/03/26 01:48:26;;;;;;;92.30;51.13;;;;;;;8.51;56.35;100602.13;5100854;28;20039;-76
2021/03/26 01:50:53;;;;;;;96.60;50.35;;;;;;;8.49;56.25;100609.13;5102177;28;20048;-77
2021/03/26 01:53:20;;;;;;;98.30;50.35;;;;;;;8.48;56.30;100610.03;5097401;28;20135;-78
2021/03/26 01:55:49;;;;;;;93.88;52.53;;;;;;;8.40;56.51;100611.13;5094495;28;20040;-77
2021/03/26 01:58:17;;;;;;;109.70;54.83;;;;;;;8.27;56.76;100606.16;5091932;28;20155;-77
2021/03/26 02:00:46;;;;;;;104.28;53.10;;;;;;;8.12;57.27;100606.53;5093492;28;20104;-78
2021/03/26 02:03:18;;;;;;;102.18;51.20;;;;;;;7.96;57.44;100605.13;5113780;28;20048;-77
2021/03/26 02:05:47;;;;;;;105.32;52.63;;;;;;;7.84;57.93;100602.78;5113922;28;20542;-78
2021/03/26 02:08:13;;;;;;;111.32;56.65;;;;;;;7.73;57.88;100607.38;5113528;28;20143;-78
2021/03/26 02:10:42;;;;;;;112.10;55.25;;;;;;;7.61;58.21;100609.34;5114092;28;20372;-77
2021/03/26 02:13:21;;;;;;;106.88;52.17;;;;;;;7.50;58.37;100611.31;5113372;28;20142;-76
2021/03/26 02:15:49;;;;;;;109.43;52.15;;;;;;;7.44;58.40;100616.63;5110106;28;20077;-76
2021/03/26 02:18:19;;;;;;;111.38;53.13;;;;;;;7.35;58.80;100616.84;5101564;28;20056;-76
2021/03/26 02:20:50;;;;;;;100.68;51.78;;;;;;;7.29;58.92;100624.78;5106319;28;20139;-76
2021/03/26 02:23:20;;;;;;;124.47;61.57;;;;;;;7.24;59.03;100623.97;5110454;28;20039;-75
2021/03/26 02:25:47;;;;;;;111.03;53.05;;;;;;;7.21;58.90;100631.88;5107827;28;20351;-77
2021/03/26 02:28:14;;;;;;;111.15;55.00;;;;;;;7.16;59.25;100621.53;5113371;28;20084;-76
2021/03/26 02:30:46;;;;;;;105.15;54.70;;;;;;;7.12;59.45;100619.03;5113955;28;20471;-77
2021/03/26 02:33:12;;;;;;;107.32;52.70;;;;;;;7.13;59.31;100613.78;5112757;28;20173;-77
2021/03/26 02:35:44;;;;;;;101.63;53.33;;;;;;;7.15;59.19;100611.13;5113866;28;20430;-76
2021/03/26 02:38:16;;;;;;;98.97;50.55;;;;;;;7.18;59.07;100616.28;5113022;28;20126;-77
2021/03/26 02:40:47;;;;;;;101.07;51.08;;;;;;;7.17;59.16;100612.81;5112803;28;20044;-76
2021/03/26 02:43:32;;;;;;;102.35;51.03;;;;;;;7.17;59.12;100609.34;5093912;28;20167;-77
2021/03/26 02:46:04;;;;;;;101.70;50.30;;;;;;;7.20;58.79;100617.13;5093082;28;20156;-77
2021/03/26 02:48:39;;;;;;;106.88;51.25;;;;;;;7.27;58.75;100618.72;5112926;28;20053;-77
2021/03/26 02:51:13;;;;;;;97.57;50.47;;;;;;;7.35;58.62;100622.06;5112216;28;20431;-77
2021/03/26 02:53:50;;;;;;;95.32;50.65;;;;;;;7.38;58.37;100616.78;5106109;27;20048;-77
2021/03/26 02:56:20;;;;;;;101.65;50.92;;;;;;;7.44;58.52;100621.84;5098831;28;20459;-77
2021/03/26 02:58:51;;;;;;;101.05;51.88;;;;;;;7.55;58.22;100619.06;5098399;28;20044;-77
2021/03/26 03:01:24;;;;;;;96.13;49.78;;;;;;;7.57;58.09;100618.13;5101416;28;20032;-76
2021/03/26 03:03:55;;;;;;;98.75;49.47;;;;;;;7.64;57.80;100624.06;5095328;28;20142;-76
2021/03/26 03:06:25;;;;;;;102.15;52.03;;;;;;;7.70;58.00;100630.91;5103916;28;20044;-77
2021/03/26 03:08:55;;;;;;;95.20;51.73;;;;;;;7.77;57.75;100629.91;5111532;28;20055;-77
2021/03/26 03:11:29;;;;;;;96.25;50.47;;;;;;;7.83;57.62;100619.34;5100422;28;20752;-77
2021/03/26 03:14:00;;;;;;;102.07;50.30;;;;;;;7.89;57.37;100619.19;5110831;28;20570;-76
2021/03/26 03:16:31;;;;;;;97.78;49.10;;;;;;;7.90;57.51;100616.53;5112386;28;20546;-75
2021/03/26 03:19:02;;;;;;;93.85;49.25;;;;;;;7.92;57.22;100621.75;5110783;28;20135;-77
2021/03/26 03:21:30;;;;;;;;;;;;;;;8.08;56.81;100620.50;5105255;28;20532;-76
2021/03/26 03:24:04;;;;;;;91.65;47.40;;;;;;;7.99;56.86;100620.72;5097855;28;20002;-78
2021/03/26 03:26:40;;;;;;;93.93;48.90;;;;;;;7.99;57.10;100620.72;5102409;28;20343;-77
2021/03/26 03:29:12;;;;;;;101.95;51.25;;;;;;;8.06;56.93;100622.31;5092055;28;20082;-76
2021/03/26 03:31:48;;;;;;;96.88;49.00;;;;;;;8.13;56.65;100623.03;5098574;28;20127;-77
2021/03/26 03:34:26;;;;;;;94.20;49.72;;;;;;;8.22;56.45;100620.22;5111273;28;20060;-76
2021/03/26 03:36:58;;;;;;;91.22;48.25;;;;;;;8.26;56.16;100627.09;5112219;28;20051;-77
2021/03/26 03:39:28;;;;;;;91.70;48.45;;;;;;;8.27;56.01;100627.03;5112332;28;20138;-77
2021/03/26 03:42:00;;;;;;;95.43;49.67;;;;;;;8.24;56.29;100621.91;5111841;28;20048;-76
2021/03/26 03:44:37;;;;;;;97.75;48.58;;;;;;;8.27;56.26;100632.25;5111893;28;20146;-77
2021/03/26 03:47:12;;;;;;;95.88;48.08;;;;;;;8.33;56.01;100628.69;5111788;28;20079;-77
2021/03/26 03:49:46;;;;;;;100.40;49.97;;;;;;;8.36;55.98;100622.56;5111862;28;20397;-77
2021/03/26 03:52:18;;;;;;;95.68;50.35;;;;;;;8.37;56.20;100624.28;5114569;28;20360;-78
2021/03/26 03:55:07;;;;;;;97.72;53.95;;;;;;;8.33;56.13;100626.06;5101705;28;20044;-76
2021/03/26 03:57:39;;;;;;;102.00;55.90;;;;;;;8.32;55.97;100633.91;5105112;28;20055;-77
2021/03/26 04:00:10;;;;;;;100.65;49.25;;;;;;;8.25;56.33;100627.97;5115207;28;20547;-81
2021/03/26 04:02:43;;;;;;;93.13;48.60;;;;;;;8.19;56.45;100636.81;5114732;28;20180;-79
2021/03/26 04:05:15;;;;;;;99.22;49.13;;;;;;;8.21;56.34;100632.41;5115600;28;20043;-78
2021/03/26 04:07:46;;;;;;;108.18;49.72;;;;;;;8.21;56.47;100635.03;5115574;28;20143;-77
2021/03/26 04:10:16;;;;;;;100.25;48.85;;;;;;;8.25;56.10;100630.59;5115968;28;20063;-77
2021/03/26 04:12:48;;;;;;;94.35;48.60;;;;;;;8.16;56.40;100636.88;5115655;28;20120;-78
2021/03/26 04:15:23;;;;;;;91.15;47.70;;;;;;;8.01;56.90;100629.38;5116189;28;20071;-77
2021/03/26 04:17:56;;;;;;;93.88;50.78;;;;;;;8.03;56.85;100634.56;5116847;28;20044;-78
2021/03/26 04:20:27;;;;;;;100.22;50.15;;;;;;;8.02;56.82;100631.09;5116312;28;20139;-77
2021/03/26 04:23:01;;;;;;;91.90;47.65;;;;;;;7.90;57.00;100633.97;5114696;28;20126;-78
2021/03/26 04:25:30;;;;;;;108.25;47.78;;;;;;;7.87;57.05;100628.81;5115361;28;20463;-80
2021/03/26 04:28:04;;;;;;;89.90;47.03;;;;;;;7.75;57.32;100623.88;5115274;28;20067;-78
2021/03/26 04:30:34;;;;;;;102.03;49.67;;;;;;;7.71;57.18;100625.69;5096509;28;20052;-78
2021/03/26 04:33:00;;;;;;;98.45;49.42;;;;;;;7.70;57.35;100628.28;5112220;28;20058;-78
2021/03/26 04:35:28;;;;;;;93.22;50.38;;;;;;;7.71;57.53;100625.69;5115673;28;20494;-78
2021/03/26 04:38:02;;;;;;;98.90;50.75;;;;;;;7.75;57.26;100621.25;5115348;28;20513;-78
2021/03/26 04:40:33;;;;;;;95.60;51.95;;;;;;;7.70;57.08;100630.91;5115219;28;20039;-78
2021/03/26 04:43:09;;;;;;;97.82;50.28;;;;;;;7.70;57.18;100634.38;5115161;28;20101;-78
2021/03/26 04:45:43;;;;;;;109.80;51.33;;;;;;;7.70;57.08;100636.97;5114916;28;20142;-79
2021/03/26 04:48:15;;;;;;;103.10;52.85;;;;;;;7.70;57.15;100638.75;5095130;27;20433;-77
2021/03/26 04:50:43;;;;;;;;;;;;;;;7.84;56.75;100641.94;5095727;28;20048;-80
2021/03/26 04:53:20;;;;;;;101.40;47.78;;;;;;;7.71;56.90;100635.25;5114105;28;20019;-80
2021/03/26 04:55:51;;;;;;;100.05;50.28;;;;;;;7.64;57.18;100642.34;5114727;28;20185;-80
2021/03/26 04:58:21;;;;;;;101.88;50.53;;;;;;;7.69;57.09;100639.63;5112131;28;20047;-79
2021/03/26 05:00:50;;;;;;;88.40;47.45;;;;;;;7.73;57.10;100646.53;5094655;28;20458;-79
2021/03/26 05:03:19;;;;;;;100.78;50.80;;;;;;;7.78;57.04;100652.50;5092442;28;20040;-79
2021/03/26 05:05:50;;;;;;;101.70;49.67;;;;;;;7.78;57.04;100642.94;5094190;28;20150;-79
2021/03/26 05:08:21;;;;;;;94.03;52.10;;;;;;;7.84;56.91;100647.16;5094350;28;20138;-79
2021/03/26 05:10:51;;;;;;;107.85;52.28;;;;;;;7.82;56.99;100655.00;5094374;28;20055;-79
2021/03/26 05:13:27;;;;;;;106.22;53.65;;;;;;;7.86;56.96;100655.81;5094172;28;20086;-80
2021/03/26 05:16:00;;;;;;;100.97;52.88;;;;;;;7.94;56.78;100661.75;5094804;28;20079;-80
2021/03/26 05:18:29;;;;;;;102.63;53.95;;;;;;;8.02;56.63;100658.97;5114692;28;20051;-79
2021/03/26 05:21:00;;;;;;;108.13;54.05;;;;;;;8.07;56.44;100651.88;5114359;28;20083;-79
2021/03/26 05:23:31;;;;;;;104.50;53.65;;;;;;;8.13;56.42;100660.47;5111125;28;20108;-79
2021/03/26 05:26:00;;;;;;;112.53;53.00;;;;;;;8.18;56.28;100658.59;5105693;28;20075;-79
2021/03/26 05:28:30;;;;;;;101.85;51.50;;;;;;;8.30;56.16;100656.59;5106145;28;20135;-78
2021/03/26 05:31:05;;;;;;;98.82;51.80;;;;;;;8.35;55.92;100660.03;5093597;28;20534;-79
2021/03/26 05:33:36;;;;;;;103.32;51.97;;;;;;;8.36;55.80;100661.75;5112219;28;20165;-80
2021/03/26 05:36:08;;;;;;;105.47;51.55;;;;;;;8.36;56.10;100666.97;5115909;28;20142;-78
2021/03/26 05:38:41;;;;;;;97.45;52.45;;;;;;;8.40;55.91;100672.06;5114246;28;20074;-78
2021/03/26 05:41:24;;;;;;;98.53;51.22;;;;;;;8.52;55.81;100676.16;5114011;28;20040;-78
2021/03/26 05:44:10;;;;;;;108.60;55.90;;;;;;;8.60;55.62;100676.00;5113807;28;20097;-78
2021/03/26 05:46:50;;;;;;;107.63;52.33;;;;;;;8.62;55.57;100674.19;5114037;28;20470;-77
2021/03/26 05:49:25;;;;;;;105.38;51.78;;;;;;;8.68;55.62;100677.50;5114096;28;20040;-78
2021/03/26 05:52:26;;;;;;;94.45;49.92;;;;;;;8.72;55.46;100687.00;5113364;28;20072;-78
2021/03/26 05:55:05;;;;;;;98.13;51.67;;;;;;;8.80;55.26;100687.69;5104897;28;20090;-78
2021/03/26 05:57:41;;;;;;;98.45;51.30;;;;;;;8.85;55.09;100687.56;5097317;28;20138;-79
2021/03/26 06:00:39;;;;;;;100.25;51.50;;;;;;;8.96;55.06;100689.94;5093693;28;20139;-78
2021/03/26 06:03:28;;;;;;;97.18;52.13;;;;;;;8.95;55.03;100682.97;5084310;28;20130;-79
2021/03/26 06:06:19;;;;;;;94.07;48.95;;;;;;;8.98;55.03;100682.91;5113407;28;20124;-79
2021/03/26 06:09:23;;;;;;;97.68;48.92;;;;;;;9.00;55.02;100696.81;5113694;28;20051;-78
2021/03/26 06:12:26;;;;;;;109.65;57.05;;;;;;;9.06;54.88;100694.03;5112938;28;20065;-77
2021/03/26 06:15:26;;;;;;;110.18;55.92;;;;;;;9.00;54.91;100696.81;5094900;28;20123;-76
2021/03/26 06:18:17;;;;;;;115.95;55.25;;;;;;;8.97;55.16;100695.13;5093149;28;20491;-77
2021/03/26 06:21:17;;;;;;;102.22;52.35;;;;;;;9.07;54.68;100703.59;5099679;27;20051;-76
2021/03/26 06:24:13;;;;;;;101.20;52.72;;;;;;;9.18;54.79;100704.19;5103412;28;20107;-74
2021/03/26 06:26:56;;;;;;;96.13;50.92;;;;;;;9.27;54.58;100706.56;5093929;28;20138;-77
2021/03/26 06:29:43;;;;;;;87.97;49.75;;;;;;;9.30;54.30;100708.25;5092770;28;20058;-77
2021/03/26 06:32:53;;;;;;;97.35;51.25;;;;;;;9.39;54.38;100706.25;5090024;28;20048;-80
2021/03/26 06:35:48;;;;;;;88.97;45.97;;;;;;;9.37;54.08;100705.44;5095046;28;20067;-79
2021/03/26 06:38:39;;;;;;;83.35;47.50;;;;;;;9.35;54.28;100696.75;5095812;28;20051;-79
2021/03/26 06:41:16;;;;;;;89.85;48.42;;;;;;;9.33;54.14;100706.41;5089227;28;20423;-79
2021/03/26 06:44:22;;;;;;;92.25;47.83;;;;;;;9.44;54.11;100704.38;5103478;28;20456;-79
2021/03/26 06:46:53;;;;;;;95.25;47.92;;;;;;;9.52;53.64;100695.44;5050787;28;20137;-78
2021/03/26 06:49:32;;;;;;;101.05;48.50;;;;;;;9.60;53.69;100703.97;5101073;28;20051;-78
2021/03/26 06:52:18;;;;;;;91.82;47.55;;;;;;;9.66;53.38;100693.31;5096579;28;20048;-79
2021/03/26 06:55:06;;;;;;;91.25;47.17;;;;;;;9.76;53.41;100694.78;5090165;28;20062;-74
2021/03/26 06:57:50;;;;;;;84.97;46.25;;;;;;;9.86;53.21;100704.09;5096324;28;20130;-77
2021/03/26 07:00:37;;;;;;;90.70;47.75;;;;;;;9.91;53.05;100707.44;5096346;28;20048;-76
2021/03/26 07:03:39;;;;;;;89.70;45.20;;;;;;;9.96;52.83;100697.69;5097758;28;20071;-76
2021/03/26 07:06:40;;;;;;;;;;;;;;;10.21;52.45;100697.88;5102796;28;20062;-74
2021/03/26 07:09:27;;;;;;;84.25;43.28;;;;;;;10.08;52.56;100699.97;5090002;28;20023;-74
2021/03/26 07:12:14;;;;;;;84.03;44.45;;;;;;;10.16;52.61;100702.34;5091524;28;20044;-75
2021/03/26 07:15:00;;;;;;;86.50;44.83;;;;;;;10.34;52.21;100693.13;5099222;28;20116;-75
2021/03/26 07:17:51;;;;;;;89.38;45.65;;;;;;;10.43;51.95;100698.09;5094312;28;20035;-77
2021/03/26 07:20:47;;;;;;;85.65;45.97;;;;;;;10.49;51.98;100692.66;5094401;28;20157;-75
2021/03/26 07:23:46;;;;;;;89.57;46.22;;;;;;;10.54;51.98;100693.38;5101204;28;20050;-76
2021/03/26 07:26:52;;;;;;;88.88;43.40;;;;;;;10.67;51.57;100692.09;5097283;28;20176;-76
2021/03/26 07:29:34;;;;;;;81.00;44.05;;;;;;;10.73;51.39;100706.75;5093826;28;20083;-76
2021/03/26 07:32:22;;;;;;;92.35;49.70;;;;;;;10.88;51.03;100705.41;5095537;28;20082;-75
2021/03/26 07:35:02;;;;;;;82.05;45.60;;;;;;;11.06;50.67;100707.44;5097201;28;20035;-77
2021/03/26 07:37:37;;;;;;;127.17;62.17;;;;;;;11.27;50.22;100713.75;5097988;28;20048;-77
2021/03/26 07:40:31;;;;;;;104.90;54.65;;;;;;;11.33;50.23;100717.94;5096307;28;20484;-75
2021/03/26 07:43:19;;;;;;;99.85;55.08;;;;;;;11.35;50.17;100716.09;5096989;28;20362;-76
2021/03/26 07:46:15;;;;;;;87.90;46.72;;;;;;;11.37;50.20;100709.03;5093838;28;20498;-77
2021/03/26 07:49:09;;;;;;;96.72;47.17;;;;;;;11.59;49.71;100710.00;5091964;28;20109;-76
2021/03/26 07:51:41;;;;;;;81.63;42.70;;;;;;;11.64;49.28;100718.56;5090596;28;20051;-75
2021/03/26 07:54:32;;;;;;;130.57;62.20;;;;;;;11.84;49.32;100710.00;5091901;28;20134;-78
2021/03/26 07:57:17;;;;;;;76.80;41.38;;;;;;;12.03;48.81;100725.97;5096021;28;20078;-77
2021/03/26 08:00:18;;;;;;;85.25;42.53;;;;;;;12.35;48.12;100716.88;5094794;28;20078;-76
2021/03/26 08:03:05;;;;;;;82.05;43.65;;;;;;;12.75;47.26;100726.72;5084457;28;20134;-76
2021/03/26 08:05:42;;;;;;;77.05;42.70;;;;;;;13.07;46.52;100734.16;5092176;28;20122;-77
2021/03/26 08:08:43;;;;;;;87.72;47.92;;;;;;;13.44;45.77;100732.66;5095237;28;20475;-77
2021/03/26 08:11:31;;;;;;;76.47;43.22;;;;;;;13.69;45.33;100733.31;5096725;28;20376;-77
2021/03/26 08:14:13;;;;;;;85.15;45.45;;;;;;;13.90;44.99;100735.94;5091547;28;20048;-76
2021/03/26 08:17:00;;;;;;;84.85;47.15;;;;;;;14.18;44.69;100730.31;5093469;28;20044;-77
2021/03/26 08:19:36;;;;;;;76.32;42.85;;;;;;;14.56;43.71;100729.38;5092625;28;20048;-78
2021/03/26 08:22:16;;;;;;;77.93;42.92;;;;;;;14.92;42.84;100736.47;5093259;28;20076;-78
2021/03/26 08:25:05;;;;;;;79.20;45.55;;;;;;;15.00;42.96;100730.84;5093480;28;20047;-76
2021/03/26 08:27:44;;;;;;;89.30;47.33;;;;;;;15.24;42.91;100734.91;5094493;28;20116;-77
2021/03/26 08:30:41;;;;;;;74.57;42.63;;;;;;;15.31;42.42;100736.31;5098722;28;20040;-77
2021/03/26 08:33:43;;;;;;;68.68;38.80;;;;;;;15.31;42.20;100740.72;5094929;28;20067;-76
2021/03/26 08:36:30;;;;;;;76.28;40.60;;;;;;;15.17;42.48;100742.25;5095816;28;20054;-76
2021/03/26 08:39:34;;;;;;;80.47;40.83;;;;;;;15.23;42.53;100743.78;5102101;28;20055;-77
2021/03/26 08:42:06;;;;;;;71.93;41.85;;;;;;;15.27;42.29;100742.69;5096808;28;20561;-78
2021/03/26 08:44:34;;;;;;;73.68;41.88;;;;;;;15.39;41.88;100743.84;5102585;28;20490;-77
2021/03/26 08:47:03;;;;;;;74.80;42.13;;;;;;;15.46;41.86;100748.75;5098466;28;20040;-77
2021/03/26 08:49:41;;;;;;;74.60;41.75;;;;;;;15.69;41.19;100741.47;5101122;28;20044;-78
2021/03/26 08:52:36;;;;;;;74.88;41.58;;;;;;;15.92;41.04;100743.75;5095422;28;20138;-77
2021/03/26 08:55:30;;;;;;;72.18;41.35;;;;;;;16.55;39.93;100737.72;5096521;28;20287;-79
2021/03/26 08:58:09;;;;;;;73.47;40.67;;;;;;;16.70;39.55;100737.78;5098184;28;20134;-76
2021/03/26 09:01:02;;;;;;;69.78;40.47;;;;;;;16.94;39.13;100739.97;5105270;28;20044;-77
2021/03/26 09:03:36;;;;;;;79.13;38.15;;;;;;;17.46;37.82;100744.88;5103140;28;20047;-77
2021/03/26 09:06:43;;;;;;;62.55;36.33;;;;;;;17.59;37.93;100744.09;5098044;28;20484;-78
2021/03/26 09:09:31;;;;;;;68.05;38.28;;;;;;;17.92;37.12;100740.38;5033665;28;20052;-76
2021/03/26 09:12:19;;;;;;;60.45;36.97;;;;;;;18.52;36.33;100741.00;5097141;28;20130;-76
2021/03/26 09:15:25;;;;;;;60.17;35.60;;;;;;;18.68;36.01;100750.69;5095846;28;20040;-81
2021/03/26 09:17:56;;;;;;;55.17;35.03;;;;;;;19.26;34.96;100744.22;5085452;28;20449;-77
2021/03/26 09:20:27;;;;;;;;;;;;;;;20.76;33.73;100751.50;5095104;28;20040;-77
2021/03/26 09:23:12;;;;;;;;;;;;;;;21.48;33.47;100752.38;5100576;28;20006;-79
2021/03/26 09:25:45;;;;;;;60.70;34.60;;;;;;;21.12;32.89;100757.75;5100604;28;19949;-83
2021/03/26 09:28:22;;;;;;;55.22;34.65;;;;;;;21.71;31.29;100757.78;5102213;27;20543;-78
2021/03/26 09:30:58;;;;;;;65.47;40.08;;;;;;;21.39;32.15;100758.38;5104035;28;20541;-81
2021/03/26 09:33:24;;;;;;;59.05;35.47;;;;;;;21.05;32.02;100760.03;5103880;28;20050;-81
2021/03/26 09:35:55;;;;;;;57.60;37.53;;;;;;;20.79;32.47;100751.25;5106688;27;20035;-81
2021/03/26 09:38:26;;;;;;;58.38;37.45;;;;;;;20.97;32.23;100752.59;5107114;28;20048;-81
2021/03/26 09:41:10;;;;;;;59.03;35.90;;;;;;;20.76;32.61;100755.97;5109094;28;20421;-83
2021/03/26 09:43:48;;;;;;;70.88;39.00;;;;;;;20.40;33.11;100747.84;5103474;28;20269;-77
2021/03/26 09:46:22;;;;;;;62.05;35.60;;;;;;;20.71;32.08;100751.00;5099600;28;20036;-76
2021/03/26 09:49:14;;;;;;;60.00;37.42;;;;;;;20.86;31.91;100755.22;5104363;28;20032;-76
2021/03/26 09:51:47;;;;;;;57.88;36.78;;;;;;;20.90;31.81;100753.16;5098302;28;20048;-80
2021/03/26 09:54:19;;;;;;;58.03;36.97;;;;;;;20.82;32.02;100753.72;5101443;28;20445;-80
2021/03/26 09:57:00;;;;;;;68.47;37.85;;;;;;;20.76;32.48;100743.50;5107686;28;20051;-78
2021/03/26 09:59:43;;;;;;;63.17;37.50;;;;;;;20.62;32.31;100751.66;5093413;28;20147;-81
2021/03/26 10:02:21;;;;;;;59.78;38.35;;;;;;;20.44;32.92;100742.34;5100728;28;20035;-76
2021/03/26 10:05:00;;;;;;;62.28;37.72;;;;;;;20.02;33.41;100757.69;5098393;28;20051;-80
2021/03/26 10:07:39;;;;;;;60.22;37.78;;;;;;;19.62;34.09;100744.47;5099099;28;20120;-77
2021/03/26 10:12:59;;;;;;;56.78;37.10;;;;;;;19.10;34.35;100741.72;5094715;28;20048;-76
2021/03/26 10:15:29;;;;;;;;;;;;;;;19.14;34.99;100737.91;5099789;28;20074;-76
2021/03/26 10:18:06;;;;;;;58.97;35.08;;;;;;;19.28;34.58;100747.63;5097260;28;20026;-77
2021/03/26 10:20:42;;;;;;;65.55;39.03;;;;;;;19.56;34.05;100734.22;5099330;28;20044;-76
2021/03/26 10:23:34;;;;;;;58.33;36.55;;;;;;;19.29;34.57;100736.91;5098110;28;20488;-76
2021/03/26 10:26:07;;;;;;;66.72;39.20;;;;;;;19.17;34.97;100733.28;5094045;28;20036;-77
2021/03/26 10:28:55;;;;;;;72.53;38.75;;;;;;;19.21;34.93;100733.06;5098153;27;20064;-76
2021/03/26 10:31:30;;;;;;;70.07;41.08;;;;;;;19.28;34.42;100735.19;5095763;27;20484;-76
2021/03/26 10:33:59;;;;;;;60.53;35.65;;;;;;;19.19;34.14;100726.03;5098919;28;20090;-75
2021/03/26 10:36:31;;;;;;;55.65;34.88;;;;;;;18.91;34.85;100726.13;5095047;28;20042;-77
2021/03/26 10:39:07;;;;;;;59.90;34.05;;;;;;;18.72;34.97;100725.63;5093454;28;20044;-77
2021/03/26 10:41:38;;;;;;;58.20;36.17;;;;;;;18.52;35.30;100732.19;5093623;28;20040;-74
2021/03/26 10:44:18;;;;;;;54.78;30.83;;;;;;;18.24;34.06;100730.44;5101061;28;20155;-75
2021/03/26 10:46:50;;;;;;;44.15;28.80;;;;;;;18.08;33.64;100724.34;5100732;28;20079;-76
2021/03/26 10:49:22;;;;;;;52.47;31.05;;;;;;;18.10;33.69;100730.41;5099354;28;20544;-76
2021/03/26 10:51:52;;;;;;;54.97;30.95;;;;;;;18.28;33.32;100716.84;5105871;28;20059;-78
2021/03/26 10:54:26;;;;;;;46.78;29.10;;;;;;;18.32;32.76;100714.84;5090989;28;20066;-75
2021/03/26 10:57:02;;;;;;;63.22;32.58;;;;;;;18.45;32.78;100717.59;5096160;28;20187;-75
2021/03/26 10:59:41;;;;;;;49.33;31.27;;;;;;;18.57;32.21;100717.69;5090482;28;20093;-75
2021/03/26 11:02:29;;;;;;;44.88;26.65;;;;;;;18.55;32.12;100714.28;5096734;28;20043;-74
2021/03/26 11:05:06;;;;;;;51.97;28.15;;;;;;;18.62;31.73;100711.22;5093919;28;20071;-76
2021/03/26 11:07:41;;;;;;;33.28;22.00;;;;;;;18.58;30.97;100719.38;5098860;28;20043;-78
2021/03/26 11:10:14;;;;;;;38.95;23.15;;;;;;;18.53;30.58;100704.69;5094534;28;20423;-77
2021/03/26 11:12:47;;;;;;;34.67;21.73;;;;;;;18.47;30.47;100716.56;5106182;28;20628;-78
2021/03/26 11:15:17;;;;;;;36.25;22.95;;;;;;;18.41;30.43;100710.78;5097789;28;20040;-76
2021/03/26 11:18:00;;;;;;;40.95;23.55;;;;;;;18.54;30.79;100707.28;5094621;28;20044;-77
2021/03/26 11:20:44;;;;;;;37.00;22.13;;;;;;;18.54;30.36;100701.09;5093797;28;20666;-78
2021/03/26 11:23:14;;;;;;;39.85;23.45;;;;;;;18.37;29.86;100699.53;5101344;28;20059;-78
2021/03/26 11:25:45;;;;;;;40.13;24.42;;;;;;;18.46;30.05;100700.72;5098319;28;20075;-77
2021/03/26 11:28:19;;;;;;;34.85;20.95;;;;;;;18.46;30.12;100706.88;5097528;28;20055;-78
2021/03/26 11:30:57;;;;;;;38.85;23.58;;;;;;;18.62;29.97;100687.31;5095709;28;20174;-76
2021/03/26 11:33:35;;;;;;;37.85;21.42;;;;;;;19.19;29.17;100686.19;5101672;28;20040;-78
2021/03/26 11:36:05;;;;;;;35.35;20.00;;;;;;;19.71;28.38;100685.28;5095871;28;20471;-76
2021/03/26 11:38:34;;;;;;;38.28;19.90;;;;;;;20.10;28.28;100678.13;5094980;28;20059;-77
2021/03/26 11:41:07;;;;;;;33.13;21.63;;;;;;;20.73;26.84;100677.13;5100386;28;20047;-78
2021/03/26 11:43:40;;;;;;;34.88;20.63;;;;;;;21.06;26.75;100672.91;5098622;28;20687;-78
2021/03/26 12:16:08;;;;;;;30.55;21.08;;;;;;;20.53;26.06;100651.09;5057393;28;20719;-73
2021/03/26 12:18:42;;;;;;;30.30;19.67;;;;;;;20.69;25.76;100652.53;5028889;28;20469;-73
2021/03/26 12:21:16;;;;;;;34.95;20.45;;;;;;;20.83;25.73;100648.84;5031947;28;20135;-74
2021/03/26 12:24:10;;;;;;;30.75;20.13;;;;;;;20.87;25.89;100642.31;5030075;28;20061;-72
2021/03/26 12:26:44;;;;;;;33.28;19.70;;;;;;;20.97;26.11;100645.13;5031074;28;20060;-75
2021/03/26 12:29:18;;;;;;;31.90;18.83;;;;;;;21.20;25.61;100646.91;5024091;28;20133;-76